^^
Station Historical Data
Daily Summary for March 18, 2017 Units:  English    Metric   Both
« Previous Day
Next Day »
Daily Weekly Monthly Yearly Custom
  High: Low: Average:
Temperature: 34.2 °F 32.7 °F 33.2 °F
Dew Point: 31.9 °F 30.9 °F 31.4 °F
Humidity: 94 % 91 % 93 %
Wind Speed: 7.0 mph 0.0 mph 3.2 mph
Wind Gust: 13.0 mph - -
Wind:- - NNE
Pressure: 30.18 in 30.12 in -
Precipitation: 0.01 in    
Historical Graphs
 
 
Tabular Data for March 18, 2017
Time Temperature Dew Point Pressure Wind Wind Speed Wind Gust Humidity Rainfall Rate (Hourly) solar Conditions
13:24 34.0 °F 31.6 °F 30.13 in WNW 1.0 mph 5.0 mph 91 % 0.00 in 114.0 W/m2 OVC
13:29 34.1 °F 31.7 °F 30.13 in NNE 1.0 mph 5.0 mph 91 % 0.00 in 114.0 W/m2 OVC
13:34 34.1 °F 31.7 °F 30.13 in NNE 3.0 mph 4.0 mph 91 % 0.00 in 125.0 W/m2 OVC
13:39 34.1 °F 31.7 °F 30.13 in NNE 3.0 mph 5.0 mph 91 % 0.00 in 144.0 W/m2 OVC
13:44 34.2 °F 31.8 °F 30.12 in NNE 3.0 mph 4.0 mph 91 % 0.00 in 156.0 W/m2 OVC
13:49 34.2 °F 31.8 °F 30.13 in Calm   5.0 mph 91 % 0.00 in 111.0 W/m2 OVC
13:54 34.1 °F 31.7 °F 30.13 in NE 2.0 mph 6.0 mph 91 % 0.00 in 99.0 W/m2 OVC
13:59 34.0 °F 31.9 °F 30.13 in NE 2.0 mph 4.0 mph 92 % 0.00 in 93.0 W/m2 OVC
14:04 34.0 °F 31.9 °F 30.12 in NE 3.0 mph 5.0 mph 92 % 0.00 in 102.0 W/m2 OVC
14:09 33.8 °F 31.7 °F 30.13 in Calm   5.0 mph 92 % 0.00 in 77.0 W/m2 OVC
14:14 33.7 °F 31.6 °F 30.13 in NE 2.0 mph 4.0 mph 92 % 0.00 in 67.0 W/m2 OVC
14:19 33.7 °F 31.6 °F 30.13 in Calm   2.0 mph 92 % 0.00 in 70.0 W/m2 OVC
14:24 33.7 °F 31.6 °F 30.13 in NE 2.0 mph 4.0 mph 92 % 0.00 in 74.0 W/m2 OVC
14:29 33.7 °F 31.6 °F 30.13 in NE 3.0 mph 6.0 mph 92 % 0.00 in 75.0 W/m2 OVC
14:34 33.7 °F 31.6 °F 30.13 in NE 2.0 mph 5.0 mph 92 % 0.00 in 62.0 W/m2 OVC
14:39 33.7 °F 31.6 °F 30.13 in NNE 1.0 mph 4.0 mph 92 % 0.00 in 46.0 W/m2 OVC
14:44 33.7 °F 31.6 °F 30.13 in NNE 1.0 mph 4.0 mph 92 % 0.00 in 53.0 W/m2 OVC
14:49 33.6 °F 31.5 °F 30.13 in NNE 3.0 mph 4.0 mph 92 % 0.00 in 51.0 W/m2 OVC
14:54 33.5 °F 31.4 °F 30.14 in NNE 2.0 mph 5.0 mph 92 % 0.00 in 60.0 W/m2 OVC
14:59 33.6 °F 31.5 °F 30.14 in NNE 2.0 mph 5.0 mph 92 % 0.00 in 60.0 W/m2 OVC
15:04 33.6 °F 31.5 °F 30.14 in Calm   5.0 mph 92 % 0.00 in 62.0 W/m2 OVC
15:09 33.6 °F 31.5 °F 30.13 in NNE 2.0 mph 6.0 mph 92 % 0.00 in 69.0 W/m2 OVC
15:14 33.5 °F 31.4 °F 30.13 in NE 2.0 mph 5.0 mph 92 % 0.00 in 72.0 W/m2 OVC
15:19 33.6 °F 31.5 °F 30.13 in NE 1.0 mph 4.0 mph 92 % 0.00 in 74.0 W/m2 OVC
15:24 33.6 °F 31.5 °F 30.14 in NE 1.0 mph 4.0 mph 92 % 0.01 in 70.0 W/m2 RA
15:29 33.7 °F 31.6 °F 30.14 in NE 2.0 mph 3.0 mph 92 % 0.01 in 77.0 W/m2 RA
15:34 33.7 °F 31.6 °F 30.13 in NE 2.0 mph 4.0 mph 92 % 0.00 in 76.0 W/m2 OVC
15:39 33.7 °F 31.9 °F 30.13 in NE 3.0 mph 5.0 mph 93 % 0.00 in 90.0 W/m2 OVC
15:44 33.7 °F 31.9 °F 30.14 in NNE 3.0 mph 5.0 mph 93 % 0.00 in 63.0 W/m2 OVC
15:49 33.7 °F 31.6 °F 30.13 in NNE 2.0 mph 4.0 mph 92 % 0.00 in 81.0 W/m2 OVC
15:54 33.7 °F 31.9 °F 30.13 in NNE 3.0 mph 5.0 mph 93 % 0.00 in 88.0 W/m2 OVC
15:59 33.7 °F 31.9 °F 30.13 in NNE 3.0 mph 8.0 mph 93 % 0.00 in 91.0 W/m2 OVC
16:04 33.7 °F 31.6 °F 30.13 in NNE 5.0 mph 6.0 mph 92 % 0.00 in 100.0 W/m2 OVC
16:09 33.6 °F 31.8 °F 30.13 in NNE 3.0 mph 8.0 mph 93 % 0.00 in 105.0 W/m2 OVC
16:14 33.6 °F 31.8 °F 30.13 in NNE 3.0 mph 9.0 mph 93 % 0.00 in 102.0 W/m2 OVC
16:19 33.7 °F 31.9 °F 30.13 in NNE 2.0 mph 8.0 mph 93 % 0.00 in 84.0 W/m2 OVC
16:24 33.6 °F 31.8 °F 30.13 in Calm   4.0 mph 93 % 0.00 in 60.0 W/m2 OVC
16:29 33.7 °F 31.9 °F 30.14 in NNE 2.0 mph 4.0 mph 93 % 0.00 in 54.0 W/m2 OVC
16:34 33.6 °F 31.8 °F 30.14 in NNE 2.0 mph 7.0 mph 93 % 0.00 in 60.0 W/m2 OVC
16:39 33.5 °F 31.7 °F 30.14 in NNE 2.0 mph 6.0 mph 93 % 0.00 in 65.0 W/m2 OVC
16:44 33.6 °F 31.8 °F 30.13 in NE 3.0 mph 5.0 mph 93 % 0.00 in 70.0 W/m2 OVC
16:49 33.7 °F 31.9 °F 30.13 in NE 2.0 mph 5.0 mph 93 % 0.00 in 72.0 W/m2 OVC
16:54 33.7 °F 31.9 °F 30.13 in NE 3.0 mph 9.0 mph 93 % 0.00 in 95.0 W/m2 OVC
16:59 33.6 °F 31.8 °F 30.13 in NE 3.0 mph 6.0 mph 93 % 0.00 in 90.0 W/m2 OVC
17:04 33.5 °F 31.7 °F 30.13 in NE 5.0 mph 6.0 mph 93 % 0.00 in 60.0 W/m2 OVC
17:09 33.4 °F 31.6 °F 30.13 in NE 3.0 mph 6.0 mph 93 % 0.00 in 58.0 W/m2 OVC
17:14 33.3 °F 31.5 °F 30.13 in NE 3.0 mph 7.0 mph 93 % 0.00 in 51.0 W/m2 OVC
17:19 33.3 °F 31.5 °F 30.13 in NNE 5.0 mph 8.0 mph 93 % 0.00 in 47.0 W/m2 OVC
17:24 33.3 °F 31.5 °F 30.13 in NNE 3.0 mph 8.0 mph 93 % 0.00 in 43.0 W/m2 OVC
17:29 33.2 °F 31.4 °F 30.12 in NNE 3.0 mph 8.0 mph 93 % 0.00 in 40.0 W/m2 OVC
17:34 33.2 °F 31.4 °F 30.13 in NNE 3.0 mph 8.0 mph 93 % 0.00 in 39.0 W/m2 OVC
17:39 33.2 °F 31.4 °F 30.13 in NNE 7.0 mph 10.0 mph 93 % 0.00 in 37.0 W/m2 OVC
17:44 33.2 °F 31.4 °F 30.13 in NE 5.0 mph 10.0 mph 93 % 0.00 in 37.0 W/m2 OVC
17:49 33.2 °F 31.4 °F 30.12 in NE 5.0 mph 10.0 mph 93 % 0.00 in 44.0 W/m2 OVC
17:54 33.2 °F 31.4 °F 30.12 in NE 3.0 mph 7.0 mph 93 % 0.00 in 28.0 W/m2 OVC
17:59 33.1 °F 31.3 °F 30.12 in NE 5.0 mph 9.0 mph 93 % 0.00 in 19.0 W/m2 OVC
18:04 33.0 °F 31.2 °F 30.13 in NNE 5.0 mph 8.0 mph 93 % 0.00 in 19.0 W/m2 OVC
18:09 33.0 °F 31.2 °F 30.12 in NNE 3.0 mph 12.0 mph 93 % 0.00 in 18.0 W/m2 OVC
18:14 32.9 °F 31.1 °F 30.13 in NE 3.0 mph 9.0 mph 93 % 0.00 in 12.0 W/m2 OVC
18:19 32.9 °F 31.1 °F 30.13 in NE 3.0 mph 12.0 mph 93 % 0.00 in 11.0 W/m2 OVC
18:24 32.9 °F 31.1 °F 30.13 in NE 5.0 mph 9.0 mph 93 % 0.00 in 11.0 W/m2 OVC
18:29 32.9 °F 31.1 °F 30.13 in NNE 6.0 mph 9.0 mph 93 % 0.00 in 7.0 W/m2 OVC
18:34 32.8 °F 31.0 °F 30.14 in NNE 3.0 mph 9.0 mph 93 % 0.00 in 6.0 W/m2 OVC
18:39 32.8 °F 31.0 °F 30.14 in NNE 5.0 mph 9.0 mph 93 % 0.00 in 0.0 W/m2 OVC
18:44 32.8 °F 31.0 °F 30.15 in NNE 3.0 mph 8.0 mph 93 % 0.00 in 0.0 W/m2 OVC
18:49 32.8 °F 31.0 °F 30.14 in NNE 3.0 mph 6.0 mph 93 % 0.00 in 0.0 W/m2 OVC
18:54 32.8 °F 31.0 °F 30.15 in NNE 3.0 mph 6.0 mph 93 % 0.00 in 0.0 W/m2 OVC
18:59 32.8 °F 31.0 °F 30.15 in NNE 3.0 mph 9.0 mph 93 % 0.00 in 0.0 W/m2 OVC
19:04 32.9 °F 31.1 °F 30.15 in NNE 3.0 mph 7.0 mph 93 % 0.00 in 0.0 W/m2 OVC
19:09 32.9 °F 31.1 °F 30.15 in NNE 3.0 mph 6.0 mph 93 % 0.00 in 0.0 W/m2 OVC
19:14 32.9 °F 31.1 °F 30.15 in NNE 5.0 mph 8.0 mph 93 % 0.00 in 0.0 W/m2 OVC
19:19 33.0 °F 31.2 °F 30.15 in NNE 3.0 mph 8.0 mph 93 % 0.00 in 0.0 W/m2 OVC
19:24 32.8 °F 31.0 °F 30.15 in NNE 5.0 mph 6.0 mph 93 % 0.00 in 0.0 W/m2 OVC
19:29 32.8 °F 31.0 °F 30.15 in NNE 6.0 mph 9.0 mph 93 % 0.00 in 0.0 W/m2 OVC
19:34 32.8 °F 31.0 °F 30.15 in NNE 6.0 mph 10.0 mph 93 % 0.00 in 0.0 W/m2 OVC
19:39 32.8 °F 31.0 °F 30.15 in NNE 5.0 mph 9.0 mph 93 % 0.00 in 0.0 W/m2 OVC
19:44 32.7 °F 30.9 °F 30.15 in NE 5.0 mph 13.0 mph 93 % 0.00 in 0.0 W/m2 OVC
19:49 32.7 °F 31.2 °F 30.15 in NNE 7.0 mph 10.0 mph 94 % 0.00 in 0.0 W/m2 OVC
19:54 32.7 °F 31.2 °F 30.15 in NNE 6.0 mph 10.0 mph 94 % 0.00 in 0.0 W/m2 OVC
19:59 32.7 °F 31.2 °F 30.15 in NE 3.0 mph 9.0 mph 94 % 0.00 in 0.0 W/m2 OVC
20:04 32.7 °F 31.2 °F 30.15 in NNE 3.0 mph 8.0 mph 94 % 0.00 in 0.0 W/m2 OVC
20:09 32.7 °F 31.2 °F 30.15 in NNE 6.0 mph 10.0 mph 94 % 0.00 in 0.0 W/m2 OVC
20:14 32.7 °F 31.2 °F 30.15 in NNE 3.0 mph 9.0 mph 94 % 0.00 in 0.0 W/m2 OVC
20:19 32.7 °F 31.2 °F 30.15 in NNE 5.0 mph 9.0 mph 94 % 0.00 in 0.0 W/m2 OVC
20:24 32.7 °F 31.2 °F 30.15 in NNE 5.0 mph 9.0 mph 94 % 0.00 in 0.0 W/m2 OVC
20:29 32.7 °F 31.2 °F 30.16 in NNE 3.0 mph 9.0 mph 94 % 0.00 in 0.0 W/m2 OVC
20:34 32.8 °F 31.3 °F 30.16 in NNE 2.0 mph 6.0 mph 94 % 0.00 in 0.0 W/m2 OVC
20:39 32.8 °F 31.3 °F 30.16 in NNE 5.0 mph 8.0 mph 94 % 0.00 in 0.0 W/m2 OVC
20:44 32.8 °F 31.0 °F 30.16 in NNE 2.0 mph 7.0 mph 93 % 0.00 in 0.0 W/m2 OVC
20:49 32.9 °F 31.4 °F 30.16 in NNE 5.0 mph 8.0 mph 94 % 0.00 in 0.0 W/m2 OVC
20:54 33.0 °F 31.5 °F 30.17 in NNE 2.0 mph 8.0 mph 94 % 0.00 in 0.0 W/m2 OVC
20:59 33.0 °F 31.2 °F 30.17 in NNE 5.0 mph 10.0 mph 93 % 0.00 in 0.0 W/m2 OVC
21:04 33.0 °F 31.2 °F 30.17 in NNE 2.0 mph 9.0 mph 93 % 0.00 in 0.0 W/m2 OVC
21:09 33.0 °F 31.2 °F 30.16 in NNE 3.0 mph 12.0 mph 93 % 0.00 in 0.0 W/m2 OVC
21:14 33.0 °F 31.2 °F 30.16 in NNE 3.0 mph 10.0 mph 93 % 0.00 in 0.0 W/m2 OVC
21:19 33.1 °F 31.3 °F 30.17 in NNE 3.0 mph 9.0 mph 93 % 0.00 in 0.0 W/m2 OVC
21:24 33.1 °F 31.6 °F 30.16 in NE 2.0 mph 6.0 mph 94 % 0.00 in 0.0 W/m2 OVC
21:29 33.2 °F 31.4 °F 30.16 in NE 3.0 mph 7.0 mph 93 % 0.00 in 0.0 W/m2 OVC
21:34 33.2 °F 31.4 °F 30.16 in NNE 5.0 mph 8.0 mph 93 % 0.00 in 0.0 W/m2 OVC
21:39 33.2 °F 31.4 °F 30.16 in NNE 5.0 mph 9.0 mph 93 % 0.00 in 0.0 W/m2 OVC
21:44 33.1 °F 31.3 °F 30.16 in NNE 5.0 mph 8.0 mph 93 % 0.00 in 0.0 W/m2 OVC
21:49 33.1 °F 31.3 °F 30.16 in NNE 3.0 mph 8.0 mph 93 % 0.00 in 0.0 W/m2 OVC
21:54 33.2 °F 31.4 °F 30.16 in NNE 3.0 mph 8.0 mph 93 % 0.00 in 0.0 W/m2 OVC
21:59 33.2 °F 31.4 °F 30.17 in NNE 6.0 mph 10.0 mph 93 % 0.00 in 0.0 W/m2 OVC
22:04 33.1 °F 31.3 °F 30.17 in NNE 3.0 mph 11.0 mph 93 % 0.00 in 0.0 W/m2 OVC
22:09 33.2 °F 31.4 °F 30.17 in NNE 3.0 mph 8.0 mph 93 % 0.00 in 0.0 W/m2 OVC
22:14 33.2 °F 31.4 °F 30.18 in NNE 3.0 mph 5.0 mph 93 % 0.00 in 0.0 W/m2 OVC
22:19 33.1 °F 31.3 °F 30.18 in NNE 3.0 mph 8.0 mph 93 % 0.00 in 0.0 W/m2 OVC
22:24 33.1 °F 31.3 °F 30.18 in NNE 3.0 mph 12.0 mph 93 % 0.00 in 0.0 W/m2 OVC
22:29 33.1 °F 31.3 °F 30.18 in NE 3.0 mph 7.0 mph 93 % 0.00 in 0.0 W/m2 OVC
22:34 33.1 °F 31.3 °F 30.17 in NE 3.0 mph 9.0 mph 93 % 0.00 in 0.0 W/m2 OVC
22:39 33.1 °F 31.3 °F 30.18 in NNE 3.0 mph 10.0 mph 93 % 0.00 in 0.0 W/m2 OVC
22:44 33.1 °F 31.3 °F 30.17 in NNE 3.0 mph 10.0 mph 93 % 0.00 in 0.0 W/m2 OVC
22:49 33.1 °F 31.3 °F 30.17 in NNE 7.0 mph 11.0 mph 93 % 0.00 in 0.0 W/m2 OVC
22:54 33.0 °F 31.2 °F 30.17 in NNE 3.0 mph 8.0 mph 93 % 0.00 in 0.0 W/m2 OVC
22:59 33.0 °F 31.2 °F 30.16 in NNE 6.0 mph 11.0 mph 93 % 0.00 in 0.0 W/m2 OVC
23:04 33.0 °F 31.2 °F 30.16 in NNE 7.0 mph 9.0 mph 93 % 0.00 in 0.0 W/m2 OVC
23:09 32.9 °F 31.1 °F 30.16 in NNE 3.0 mph 10.0 mph 93 % 0.00 in 0.0 W/m2 OVC
23:14 32.9 °F 31.1 °F 30.16 in NNE 6.0 mph 10.0 mph 93 % 0.00 in 0.0 W/m2 OVC
23:19 32.9 °F 31.1 °F 30.16 in NNE 3.0 mph 8.0 mph 93 % 0.00 in 0.0 W/m2 OVC
23:24 32.9 °F 31.1 °F 30.17 in Calm   8.0 mph 93 % 0.00 in 0.0 W/m2 OVC
23:29 32.9 °F 31.1 °F 30.18 in Calm   5.0 mph 93 % 0.00 in 0.0 W/m2 OVC
23:34 32.9 °F 31.1 °F 30.17 in Calm     93 % 0.00 in 0.0 W/m2 OVC
23:39 33.0 °F 31.2 °F 30.17 in NNE 3.0 mph 4.0 mph 93 % 0.00 in 0.0 W/m2 OVC
23:49 32.9 °F 31.1 °F 30.17 in NNE 3.0 mph 6.0 mph 93 % 0.00 in 0.0 W/m2 OVC
23:54 33.0 °F 31.2 °F 30.17 in NNE 3.0 mph 6.0 mph 93 % 0.00 in 0.0 W/m2 OVC
23:59 33.0 °F 31.2 °F 30.17 in NNE 3.0 mph 9.0 mph 93 % 0.00 in 0.0 W/m2 OVC
Air Products Campus Weather
Compliments of Weather Underground - 2.5 mb